createdAt,value
2022-07-26T00:01:48.227Z,100460.63
2022-07-26T00:04:15.369Z,100455.03
2022-07-26T00:06:42.591Z,100452.25
2022-07-26T00:09:10.333Z,100447.78
2022-07-26T00:11:37.691Z,100455.44
2022-07-26T00:14:09.234Z,100455.81
2022-07-26T00:16:38.078Z,100471.44
2022-07-26T00:19:10.273Z,100465.41
2022-07-26T00:21:38.554Z,100471.06
2022-07-26T00:24:09.096Z,100464.22
2022-07-26T00:26:36.382Z,100469.84
2022-07-26T00:29:06.123Z,100470.50
2022-07-26T00:31:33.751Z,100472.13
2022-07-26T00:34:00.915Z,100471.75
2022-07-26T00:36:28.994Z,100470.94
2022-07-26T00:38:55.998Z,100464.09
2022-07-26T00:41:23.132Z,100458.53
2022-07-26T00:44:00.380Z,100467.00
2022-07-26T00:46:28.340Z,100468.50
2022-07-26T00:48:55.844Z,100464.41
2022-07-26T00:51:23.657Z,100466.81
2022-07-26T00:53:50.997Z,100465.16
2022-07-26T00:56:18.733Z,100466.25
2022-07-26T00:58:45.917Z,100465.78
2022-07-26T01:01:13.307Z,100480.19
2022-07-26T01:03:40.649Z,100490.53
2022-07-26T01:06:08.878Z,100480.06
2022-07-26T01:08:36.858Z,100473.28
2022-07-26T01:11:03.781Z,100480.06
2022-07-26T01:18:41.808Z,100506.09
2022-07-26T01:21:13.911Z,100510.44
2022-07-26T01:23:43.699Z,100517.38
2022-07-26T01:26:11.877Z,100514.09
2022-07-26T01:28:41.987Z,100514.16
2022-07-26T01:31:09.318Z,100504.50
2022-07-26T01:33:36.463Z,100507.03
2022-07-26T01:36:03.777Z,100509.41
2022-07-26T01:38:30.860Z,100508.53
2022-07-26T01:40:57.949Z,100504.13
2022-07-26T01:43:24.994Z,100528.28
2022-07-26T01:45:54.985Z,100525.88
2022-07-26T01:48:22.231Z,100524.63
2022-07-26T01:50:49.367Z,100533.09
2022-07-26T01:53:16.494Z,100522.66
2022-07-26T01:55:43.624Z,100518.56
2022-07-26T01:58:10.656Z,100526.03
2022-07-26T02:00:37.743Z,100547.78
2022-07-26T02:03:05.009Z,100545.09
2022-07-26T02:05:32.219Z,100539.06
2022-07-26T02:07:59.455Z,100541.03
2022-07-26T02:10:47.778Z,100534.91
2022-07-26T02:13:14.894Z,100524.50
2022-07-26T02:15:42.529Z,100535.19
2022-07-26T02:18:09.951Z,100528.31
2022-07-26T02:20:37.022Z,100526.66
2022-07-26T02:23:05.212Z,100523.91
2022-07-26T02:25:32.934Z,100527.94
2022-07-26T02:28:01.651Z,100526.78
2022-07-26T02:30:29.458Z,100538.25
2022-07-26T02:32:56.784Z,100535.41
2022-07-26T02:35:23.905Z,100535.22
2022-07-26T02:37:51.017Z,100534.25
2022-07-26T02:40:19.480Z,100530.31
2022-07-26T02:42:46.926Z,100525.13
2022-07-26T02:45:13.970Z,100532.69
2022-07-26T02:47:54.134Z,100530.31
2022-07-26T02:50:25.838Z,100521.88
2022-07-26T02:52:54.256Z,100518.63
2022-07-26T02:55:26.733Z,100517.03
2022-07-26T02:57:54.774Z,100522.22
2022-07-26T03:00:27.508Z,100522.66
2022-07-26T03:02:54.887Z,100520.22
2022-07-26T03:05:22.601Z,100524.25
2022-07-26T03:07:50.640Z,100523.97
2022-07-26T03:10:17.794Z,100521.03
2022-07-26T03:12:45.428Z,100526.06
2022-07-26T03:15:12.851Z,100524.84
2022-07-26T03:17:39.971Z,100523.63
2022-07-26T03:20:08.407Z,100532.47
2022-07-26T03:22:35.515Z,100530.13
2022-07-26T03:25:02.615Z,100530.88
2022-07-26T03:27:29.768Z,100532.91
2022-07-26T03:29:56.741Z,100530.84
2022-07-26T03:32:23.839Z,100527.13
2022-07-26T03:34:51.336Z,100515.78
2022-07-26T03:37:19.034Z,100525.94
2022-07-26T03:39:46.245Z,100527.38
2022-07-26T03:42:15.494Z,100533.69
2022-07-26T03:44:42.627Z,100533.69
2022-07-26T03:47:09.692Z,100538.00
2022-07-26T03:49:36.768Z,100535.63
2022-07-26T03:52:04.497Z,100534.47
2022-07-26T03:54:31.800Z,100536.16
2022-07-26T03:56:58.824Z,100536.16
2022-07-26T03:59:25.823Z,100538.31
2022-07-26T04:01:52.907Z,100536.06
2022-07-26T04:04:25.171Z,100532.84
2022-07-26T04:06:52.677Z,100531.31
2022-07-26T04:09:20.333Z,100531.78
2022-07-26T04:11:48.690Z,100533.00
2022-07-26T04:14:16.569Z,100538.69
2022-07-26T04:16:44.054Z,100537.59
2022-07-26T04:19:11.459Z,100536.31
2022-07-26T04:21:38.826Z,100537.72
2022-07-26T04:24:07.019Z,100542.91
2022-07-26T04:26:34.963Z,100538.47
2022-07-26T04:29:02.412Z,100534.22
2022-07-26T04:31:29.389Z,100538.38
2022-07-26T04:34:03.711Z,100542.78
2022-07-26T04:36:30.729Z,100546.63
2022-07-26T04:38:57.802Z,100541.84
2022-07-26T04:41:25.065Z,100547.22
2022-07-26T04:43:52.099Z,100549.63
2022-07-26T04:46:19.617Z,100552.78
2022-07-26T04:48:46.765Z,100548.75
2022-07-26T04:51:13.834Z,100551.91
2022-07-26T04:53:40.897Z,100558.94
2022-07-26T04:56:08.360Z,100553.69
2022-07-26T04:58:35.407Z,100557.75
2022-07-26T05:01:09.922Z,100558.25
2022-07-26T05:03:37.926Z,100557.16
2022-07-26T05:06:05.248Z,100562.22
2022-07-26T05:08:32.301Z,100561.47
2022-07-26T05:10:59.378Z,100560.34
2022-07-26T05:13:30.324Z,100562.78
2022-07-26T05:16:00.251Z,100566.44
2022-07-26T05:18:31.471Z,100570.94
2022-07-26T05:20:59.117Z,100571.81
2022-07-26T05:23:26.140Z,100577.00
2022-07-26T05:25:53.249Z,100579.06
2022-07-26T05:28:20.311Z,100582.94
2022-07-26T05:30:47.560Z,100589.22
2022-07-26T05:33:16.707Z,100595.28
2022-07-26T05:35:44.343Z,100598.94
2022-07-26T05:38:11.762Z,100591.66
2022-07-26T05:40:38.954Z,100590.50
2022-07-26T05:43:06.057Z,100595.94
2022-07-26T05:45:33.316Z,100602.69
2022-07-26T05:48:00.560Z,100600.88
2022-07-26T05:50:27.736Z,100604.97
2022-07-26T05:52:54.745Z,100614.06
2022-07-26T05:55:23.073Z,100603.34
2022-07-26T05:57:50.159Z,100607.72
2022-07-26T06:00:17.706Z,100591.28
2022-07-26T06:02:44.840Z,100597.53
2022-07-26T06:05:12.056Z,100609.69
2022-07-26T06:07:39.107Z,100607.41
2022-07-26T06:10:07.016Z,100616.69
2022-07-26T06:12:34.045Z,100613.13
2022-07-26T06:15:01.222Z,100614.38
2022-07-26T06:17:30.576Z,100612.56
2022-07-26T06:19:58.693Z,100615.56
2022-07-26T06:22:26.638Z,100615.19
2022-07-26T06:24:53.602Z,100613.81
2022-07-26T06:27:20.747Z,100622.28
2022-07-26T06:29:49.220Z,100615.38
2022-07-26T06:32:16.425Z,100620.44
2022-07-26T06:34:43.495Z,100614.44
2022-07-26T06:37:10.551Z,100620.16
2022-07-26T06:39:37.729Z,100622.47
2022-07-26T06:42:07.686Z,100628.50
2022-07-26T06:44:35.305Z,100614.06
2022-07-26T06:47:02.456Z,100620.22
2022-07-26T06:49:29.562Z,100621.47
2022-07-26T06:51:57.978Z,100614.72
2022-07-26T06:54:25.036Z,100608.00
2022-07-26T06:56:52.306Z,100610.00
2022-07-26T06:59:19.366Z,100614.56
2022-07-26T07:01:58.066Z,100621.41
2022-07-26T07:04:30.144Z,100630.69
2022-07-26T07:07:02.718Z,100625.41
2022-07-26T07:09:35.091Z,100629.84
2022-07-26T07:14:39.677Z,100637.09
2022-07-26T07:17:10.731Z,100631.06
2022-07-26T07:19:41.154Z,100639.56
2022-07-26T07:22:11.988Z,100630.72
2022-07-26T07:24:41.683Z,100631.94
2022-07-26T07:27:10.763Z,100636.38
2022-07-26T07:29:41.447Z,100650.47
2022-07-26T07:32:15.745Z,100641.63
2022-07-26T07:34:47.911Z,100645.25
2022-07-26T07:37:17.034Z,100646.84
2022-07-26T07:39:44.659Z,100637.97
2022-07-26T07:42:19.780Z,100637.97
2022-07-26T07:44:47.862Z,100640.00
2022-07-26T07:47:15.042Z,100640.41
2022-07-26T07:49:42.156Z,100644.03
2022-07-26T07:52:09.336Z,100637.59
2022-07-26T07:54:36.387Z,100635.16
2022-07-26T07:57:03.690Z,100630.72
2022-07-26T07:59:31.066Z,100636.38
2022-07-26T08:01:59.061Z,100635.56
2022-07-26T08:04:26.329Z,100636.38
2022-07-26T08:06:53.481Z,100634.38
2022-07-26T08:09:20.641Z,100629.88
2022-07-26T08:11:50.518Z,100632.59
2022-07-26T08:14:19.738Z,100624.44
2022-07-26T08:16:47.202Z,100637.84
2022-07-26T08:19:15.046Z,100626.16
2022-07-26T08:21:43.036Z,100635.91
2022-07-26T08:24:10.979Z,100631.06
2022-07-26T08:26:39.026Z,100632.13
2022-07-26T08:29:06.094Z,100641.72
2022-07-26T08:31:33.286Z,100633.19
2022-07-26T08:34:00.415Z,100640.81
2022-07-26T08:36:32.239Z,100639.53
2022-07-26T08:39:00.912Z,100639.41
2022-07-26T08:41:28.706Z,100642.84
2022-07-26T08:43:55.747Z,100639.19
2022-07-26T08:46:27.688Z,100638.13
2022-07-26T08:48:58.382Z,100642.28
2022-07-26T08:51:27.281Z,100639.56
2022-07-26T08:54:05.888Z,100654.03
2022-07-26T08:56:40.671Z,100647.13
2022-07-26T08:59:21.224Z,100638.47
2022-07-26T09:02:05.295Z,100639.75
2022-07-26T09:04:44.707Z,100650.13
2022-07-26T09:07:18.743Z,100643.59
2022-07-26T09:10:12.627Z,100650.28
2022-07-26T09:12:42.539Z,100653.19
2022-07-26T09:15:22.736Z,100647.13
2022-07-26T09:17:57.967Z,100647.91
2022-07-26T09:20:32.344Z,100655.63
2022-07-26T09:23:08.082Z,100651.81
2022-07-26T09:25:43.210Z,100658.69
2022-07-26T09:28:31.920Z,100648.91
2022-07-26T09:31:04.203Z,100658.00
2022-07-26T09:33:51.845Z,100652.47
2022-07-26T09:36:19.589Z,100668.69
2022-07-26T09:39:03.335Z,100662.13
2022-07-26T09:41:37.304Z,100663.41
2022-07-26T09:44:26.264Z,100659.06
2022-07-26T09:46:59.511Z,100664.47
2022-07-26T09:49:32.544Z,100658.16
2022-07-26T09:52:22.025Z,100668.34
2022-07-26T09:54:50.063Z,100660.72
2022-07-26T09:57:21.784Z,100654.69
2022-07-26T09:59:48.805Z,100645.59
2022-07-26T10:02:15.936Z,100651.81
2022-07-26T10:04:44.502Z,100650.34
2022-07-26T10:07:11.668Z,100645.25
2022-07-26T10:10:17.434Z,100653.41
2022-07-26T10:12:46.877Z,100645.81
2022-07-26T10:15:42.969Z,100646.47
2022-07-26T10:18:39.035Z,100647.69
2022-07-26T10:21:27.242Z,100652.16
2022-07-26T10:24:03.739Z,100649.88
2022-07-26T10:26:36.311Z,100655.19
2022-07-26T10:29:18.339Z,100661.63
2022-07-26T10:32:04.061Z,100664.16
2022-07-26T10:34:39.493Z,100667.50
2022-07-26T10:37:19.934Z,100661.94
2022-07-26T10:39:47.085Z,100671.16
2022-07-26T10:42:16.976Z,100668.72
2022-07-26T10:44:47.012Z,100673.94
2022-07-26T10:47:21.061Z,100665.44
2022-07-26T10:50:00.161Z,100667.44
2022-07-26T10:52:31.797Z,100670.31
2022-07-26T10:55:07.457Z,100670.66
2022-07-26T10:57:41.370Z,100667.88
2022-07-26T11:00:26.544Z,100671.47
2022-07-26T11:02:59.154Z,100675.97
2022-07-26T11:05:34.976Z,100672.84
2022-07-26T11:08:09.067Z,100668.22
2022-07-26T11:10:47.530Z,100669.66
2022-07-26T11:13:26.336Z,100657.22
2022-07-26T11:16:04.115Z,100674.16
2022-07-26T11:18:38.909Z,100666.03
2022-07-26T11:21:17.590Z,100664.13
2022-07-26T11:23:51.218Z,100663.69
2022-07-26T11:26:25.742Z,100662.69
2022-07-26T11:29:06.143Z,100667.72
2022-07-26T11:31:55.811Z,100669.13
2022-07-26T11:34:35.490Z,100668.00
2022-07-26T11:37:06.005Z,100683.50
2022-07-26T11:39:36.297Z,100672.50
2022-07-26T11:42:19.925Z,100670.59
2022-07-26T11:44:49.824Z,100664.25
2022-07-26T11:47:25.199Z,100658.06
2022-07-26T11:50:12.968Z,100659.84
2022-07-26T11:52:41.888Z,100668.22
2022-07-26T11:55:09.699Z,100658.81
2022-07-26T11:57:36.857Z,100654.56
2022-07-26T12:00:06.373Z,100656.25
2022-07-26T12:02:33.559Z,100658.53
2022-07-26T12:05:22.729Z,100652.28
2022-07-26T12:08:02.966Z,100659.34
2022-07-26T12:10:31.031Z,100662.28
2022-07-26T12:13:16.442Z,100664.84
2022-07-26T12:15:53.813Z,100669.56
2022-07-26T12:18:34.127Z,100679.78
2022-07-26T12:21:09.653Z,100690.41
2022-07-26T12:23:50.891Z,100710.41
2022-07-26T12:26:29.266Z,100732.03
2022-07-26T12:28:58.610Z,100745.34
2022-07-26T12:31:30.637Z,100749.66
2022-07-26T12:33:59.531Z,100764.88
2022-07-26T12:36:29.423Z,100760.88
2022-07-26T12:39:00.555Z,100772.59
2022-07-26T12:41:47.435Z,100782.88
2022-07-26T12:44:15.375Z,100779.50
2022-07-26T12:46:46.627Z,100789.47
2022-07-26T12:49:13.944Z,100784.25
2022-07-26T12:51:41.412Z,100788.44
2022-07-26T12:54:09.498Z,100793.66
2022-07-26T12:56:36.750Z,100790.41
2022-07-26T12:59:03.825Z,100790.50
2022-07-26T13:01:32.933Z,100794.81
2022-07-26T13:04:01.167Z,100794.69
2022-07-26T13:06:28.560Z,100799.75
2022-07-26T13:08:56.616Z,100797.03
2022-07-26T13:11:24.070Z,100796.66
2022-07-26T13:13:51.160Z,100805.31
2022-07-26T13:16:18.212Z,100799.63
2022-07-26T13:18:46.443Z,100803.56
2022-07-26T13:21:13.462Z,100802.63
2022-07-26T13:23:40.504Z,100805.91
2022-07-26T13:26:09.222Z,100806.31
2022-07-26T13:28:39.980Z,100814.06
2022-07-26T13:31:07.310Z,100810.38
2022-07-26T13:33:34.503Z,100809.19
2022-07-26T13:36:01.566Z,100799.28
2022-07-26T13:38:31.381Z,100806.59
2022-07-26T13:40:58.374Z,100805.75
2022-07-26T13:43:25.726Z,100801.50
2022-07-26T13:45:52.701Z,100806.75
2022-07-26T13:48:20.386Z,100802.75
2022-07-26T13:50:47.418Z,100801.19
2022-07-26T13:53:14.852Z,100803.53
2022-07-26T13:55:42.430Z,100800.88
2022-07-26T13:58:10.378Z,100807.09
2022-07-26T14:00:38.361Z,100796.63
2022-07-26T14:03:05.481Z,100800.72
2022-07-26T14:05:32.992Z,100798.53
2022-07-26T14:08:00.062Z,100798.16
2022-07-26T14:10:27.217Z,100795.19
2022-07-26T14:12:54.452Z,100797.69
2022-07-26T14:15:23.313Z,100812.59
2022-07-26T14:17:52.783Z,100811.13
2022-07-26T14:20:21.719Z,100812.00
2022-07-26T14:22:53.959Z,100817.28
2022-07-26T14:25:24.167Z,100813.53
2022-07-26T14:27:54.382Z,100813.91
2022-07-26T14:30:22.594Z,100811.88
2022-07-26T14:32:49.976Z,100817.06
2022-07-26T14:35:17.927Z,100820.19
2022-07-26T14:37:46.239Z,100817.50
2022-07-26T14:40:26.021Z,100820.97
2022-07-26T14:42:53.096Z,100827.75
2022-07-26T14:45:20.169Z,100833.72
2022-07-26T14:47:47.286Z,100827.81
2022-07-26T14:51:08.277Z,100836.47
2022-07-26T15:16:07.647Z,100829.97
2022-07-26T15:18:35.988Z,100832.78
2022-07-26T15:21:03.309Z,100827.91
2022-07-26T15:23:31.136Z,100828.91
2022-07-26T15:25:58.240Z,100826.09
2022-07-26T15:28:25.301Z,100830.94
2022-07-26T15:30:53.013Z,100828.53
2022-07-26T15:33:20.747Z,100826.91
2022-07-26T15:35:47.851Z,100819.56
2022-07-26T15:38:14.940Z,100821.69
2022-07-26T15:40:42.162Z,100827.69
2022-07-26T15:43:09.219Z,100827.28
2022-07-26T15:45:37.484Z,100830.50
2022-07-26T15:48:15.851Z,100836.97
2022-07-26T15:50:48.057Z,100834.88
2022-07-26T15:53:16.747Z,100829.19
2022-07-26T15:55:43.826Z,100832.78
2022-07-26T15:58:10.912Z,100822.63
2022-07-26T16:00:38.021Z,100828.97
2022-07-26T16:03:05.140Z,100834.22
2022-07-26T16:05:33.201Z,100838.69
2022-07-26T16:08:00.699Z,100828.75
2022-07-26T16:10:27.767Z,100819.19
2022-07-26T16:12:54.762Z,100823.69
2022-07-26T16:15:21.847Z,100826.16
2022-07-26T16:17:48.821Z,100831.16
2022-07-26T16:20:19.406Z,100824.47
2022-07-26T16:22:48.250Z,100825.69
2022-07-26T16:25:16.184Z,100827.69
2022-07-26T16:27:44.199Z,100823.25
2022-07-26T16:30:14.717Z,100823.66
2022-07-26T16:32:43.689Z,100827.59
2022-07-26T16:35:12.423Z,100829.13
2022-07-26T16:37:40.169Z,100831.13
2022-07-26T16:40:09.416Z,100828.72
2022-07-26T16:42:36.595Z,100833.09
2022-07-26T16:45:04.719Z,100840.81
2022-07-26T16:47:31.745Z,100826.44
2022-07-26T16:49:58.808Z,100831.34
2022-07-26T16:52:25.814Z,100832.06
2022-07-26T16:54:52.833Z,100825.56
2022-07-26T16:57:19.897Z,100829.13
2022-07-26T16:59:47.708Z,100834.38
2022-07-26T17:02:14.868Z,100830.34
2022-07-26T17:04:41.960Z,100832.69
2022-07-26T17:07:24.415Z,100822.63
2022-07-26T17:09:52.460Z,100827.84
2022-07-26T17:12:20.175Z,100833.06
2022-07-26T17:14:47.206Z,100833.41
2022-07-26T17:17:14.221Z,100838.22
2022-07-26T17:19:41.260Z,100839.72
2022-07-26T17:22:08.295Z,100835.31
2022-07-26T17:24:35.289Z,100836.84
2022-07-26T17:27:02.313Z,100837.22
2022-07-26T17:29:29.393Z,100837.75
2022-07-26T17:31:56.538Z,100835.88
2022-07-26T17:34:23.953Z,100836.69
2022-07-26T17:37:05.691Z,100838.72
2022-07-26T17:39:50.760Z,100844.41
2022-07-26T17:42:21.012Z,100839.56
2022-07-26T17:44:48.179Z,100842.38
2022-07-26T17:47:18.005Z,100856.38
2022-07-26T17:49:55.824Z,100845.41
2022-07-26T17:52:23.985Z,100847.06
2022-07-26T17:54:51.033Z,100834.84
2022-07-26T17:57:18.028Z,100837.19
2022-07-26T17:59:45.132Z,100844.84
2022-07-26T18:02:12.265Z,100841.63
2022-07-26T18:04:39.337Z,100841.19
2022-07-26T18:07:06.356Z,100841.16
2022-07-26T18:09:33.461Z,100843.63
2022-07-26T18:12:00.646Z,100846.41
2022-07-26T18:14:27.711Z,100849.97
2022-07-26T18:16:56.989Z,100853.53
2022-07-26T18:19:24.814Z,100857.53
2022-07-26T18:21:51.795Z,100856.97
2022-07-26T18:24:18.877Z,100860.53
2022-07-26T18:26:45.957Z,100863.56
2022-07-26T18:29:15.211Z,100863.09
2022-07-26T18:31:42.970Z,100865.06
2022-07-26T18:34:10.007Z,100868.63
2022-07-26T18:36:37.079Z,100869.78
2022-07-26T18:39:05.220Z,100868.50
2022-07-26T18:41:34.273Z,100864.38
2022-07-26T18:44:04.108Z,100881.59
2022-07-26T18:46:31.293Z,100868.19
2022-07-26T18:49:01.197Z,100875.78
2022-07-26T18:51:29.759Z,100882.56
2022-07-26T18:53:58.918Z,100887.63
2022-07-26T18:56:25.919Z,100894.75
2022-07-26T18:58:53.197Z,100885.72
2022-07-26T19:01:20.264Z,100896.03
2022-07-26T19:03:47.384Z,100891.41
2022-07-26T19:06:14.660Z,100897.31
2022-07-26T19:08:41.697Z,100897.50
2022-07-26T19:11:08.923Z,100901.78
2022-07-26T19:13:36.035Z,100899.59
2022-07-26T19:16:03.095Z,100903.03
2022-07-26T19:18:30.298Z,100908.47
2022-07-26T19:20:57.448Z,100901.16
2022-07-26T19:23:24.550Z,100909.84
2022-07-26T19:25:51.941Z,100912.22
2022-07-26T19:28:19.057Z,100910.53
2022-07-26T19:30:46.324Z,100911.22
2022-07-26T19:33:14.375Z,100919.50
2022-07-26T19:35:41.456Z,100917.81
2022-07-26T19:38:08.599Z,100924.91
2022-07-26T19:40:35.782Z,100919.94
2022-07-26T19:43:02.938Z,100924.38
2022-07-26T19:45:30.003Z,100929.56
2022-07-26T19:47:57.212Z,100925.88
2022-07-26T19:50:24.463Z,100931.69
2022-07-26T19:52:51.524Z,100935.63
2022-07-26T19:55:18.821Z,100940.69
2022-07-26T19:57:46.033Z,100941.38
2022-07-26T20:00:13.982Z,100937.97
2022-07-26T20:02:41.985Z,100944.19
2022-07-26T20:05:13.371Z,100944.50
2022-07-26T20:07:40.855Z,100955.91
2022-07-26T20:10:09.643Z,100952.94
2022-07-26T20:12:38.899Z,100955.53
2022-07-26T20:15:09.823Z,100950.22
2022-07-26T20:17:39.325Z,100953.22
2022-07-26T20:20:10.162Z,100954.28
2022-07-26T20:22:37.430Z,100959.00
2022-07-26T20:25:06.071Z,100958.38
2022-07-26T20:27:33.296Z,100959.19
2022-07-26T20:30:01.269Z,100961.25
2022-07-26T20:32:28.534Z,100969.94
2022-07-26T20:34:55.769Z,100967.56
2022-07-26T20:37:23.180Z,100965.75
2022-07-26T20:39:50.465Z,100965.03
2022-07-26T20:42:21.620Z,100970.28
2022-07-26T20:44:49.474Z,100971.09
2022-07-26T20:47:16.512Z,100965.97
2022-07-26T20:49:43.568Z,100972.47
2022-07-26T20:52:11.428Z,100971.09
2022-07-26T20:54:38.594Z,100971.94
2022-07-26T20:57:05.734Z,100977.63
2022-07-26T20:59:35.027Z,100974.00
2022-07-26T21:02:02.289Z,100982.88
2022-07-26T21:04:30.081Z,100980.34
2022-07-26T21:06:57.123Z,100985.13
2022-07-26T21:09:27.861Z,100992.72
2022-07-26T21:11:55.221Z,100989.56
2022-07-26T21:14:22.306Z,100984.13
2022-07-26T21:16:49.418Z,100989.91
2022-07-26T21:19:16.683Z,100991.69
2022-07-26T21:21:44.220Z,100996.47
2022-07-26T21:24:12.350Z,100997.28
2022-07-26T21:26:39.563Z,101001.69
2022-07-26T21:29:06.731Z,101004.25
2022-07-26T21:31:34.175Z,101006.31
2022-07-26T21:34:01.400Z,101009.13
2022-07-26T21:36:28.637Z,101011.69
2022-07-26T21:38:55.808Z,101011.13
2022-07-26T21:41:22.852Z,101019.88
2022-07-26T21:43:49.878Z,101024.31
2022-07-26T21:46:17.042Z,101025.03
2022-07-26T21:48:44.205Z,101018.72
2022-07-26T21:51:11.501Z,101023.81
2022-07-26T21:53:38.586Z,101026.38
2022-07-26T21:56:06.008Z,101030.56
2022-07-26T21:58:36.610Z,101037.25
2022-07-26T22:01:08.592Z,101040.16
2022-07-26T22:03:38.923Z,101044.56
2022-07-26T22:06:08.785Z,101045.13
2022-07-26T22:08:39.225Z,101056.81
2022-07-26T22:11:06.473Z,101053.94
2022-07-26T22:13:33.473Z,101058.53
2022-07-26T22:16:00.633Z,101056.75
2022-07-26T22:18:28.125Z,101056.81
2022-07-26T22:20:55.937Z,101057.19
2022-07-26T22:23:23.464Z,101064.59
2022-07-26T22:25:50.495Z,101072.38
2022-07-26T22:28:17.966Z,101072.72
2022-07-26T22:30:46.460Z,101078.69
2022-07-26T22:33:13.638Z,101066.94
2022-07-26T22:35:40.861Z,101064.69
2022-07-26T22:38:11.944Z,101068.91
2022-07-26T22:40:42.357Z,101067.38
2022-07-26T22:43:11.531Z,101071.91
2022-07-26T22:45:39.837Z,101071.91
2022-07-26T22:48:09.388Z,101072.44
2022-07-26T22:50:36.797Z,101077.09
2022-07-26T22:53:04.345Z,101080.03
2022-07-26T22:55:32.060Z,101088.78
2022-07-26T22:57:59.708Z,101091.22
2022-07-26T23:00:27.167Z,101089.41
2022-07-26T23:02:54.480Z,101102.13
2022-07-26T23:05:21.880Z,101099.94
2022-07-26T23:07:59.190Z,101094.06
2022-07-26T23:10:30.596Z,101098.75
2022-07-26T23:12:58.010Z,101097.94
2022-07-26T23:15:25.254Z,101099.59
2022-07-26T23:17:52.390Z,101105.91
2022-07-26T23:20:19.453Z,101098.91
2022-07-26T23:22:46.461Z,101102.91
2022-07-26T23:25:13.526Z,101101.22
2022-07-26T23:27:40.648Z,101100.09
2022-07-26T23:30:08.597Z,101101.63
2022-07-26T23:32:35.582Z,101108.53
2022-07-26T23:35:02.622Z,101105.00
2022-07-26T23:37:29.676Z,101106.66
2022-07-26T23:39:56.670Z,101106.19
2022-07-26T23:42:24.270Z,101098.13
2022-07-26T23:44:51.365Z,101097.13
2022-07-26T23:47:18.427Z,101094.94
2022-07-26T23:49:45.450Z,101092.47
2022-07-26T23:52:12.568Z,101095.50
2022-07-26T23:54:39.637Z,101093.16
2022-07-26T23:57:07.012Z,101094.34
2022-07-26T23:59:34.128Z,101084.81
